createdAt,value
2022-12-29T00:01:43.202Z,5.40
2022-12-29T00:04:15.290Z,5.40
2022-12-29T00:06:43.783Z,5.40
2022-12-29T00:09:13.556Z,5.50
2022-12-29T00:11:40.755Z,5.50
2022-12-29T00:14:28.594Z,5.50
2022-12-29T00:16:56.879Z,5.60
2022-12-29T00:19:43.196Z,5.60
2022-12-29T00:22:30.074Z,5.70
2022-12-29T00:25:02.919Z,5.60
2022-12-29T00:27:48.983Z,5.70
2022-12-29T00:30:39.155Z,5.70
2022-12-29T00:33:28.768Z,5.80
2022-12-29T00:36:02.938Z,5.70
2022-12-29T00:38:51.024Z,5.70
2022-12-29T00:41:36.743Z,5.70
2022-12-29T00:44:06.489Z,5.70
2022-12-29T00:46:42.686Z,5.60
2022-12-29T00:49:30.979Z,5.60
2022-12-29T00:52:12.724Z,5.50
2022-12-29T00:54:41.539Z,5.50
2022-12-29T00:57:10.525Z,5.50
2022-12-29T00:59:38.665Z,5.40
2022-12-29T01:02:06.120Z,5.40
2022-12-29T01:04:33.133Z,5.40
2022-12-29T01:07:00.023Z,5.40
2022-12-29T01:09:45.247Z,5.40
2022-12-29T01:12:12.494Z,5.30
2022-12-29T01:14:39.720Z,5.30
2022-12-29T01:17:07.503Z,5.30
2022-12-29T01:19:34.559Z,5.20
2022-12-29T01:22:01.592Z,5.20
2022-12-29T01:24:28.624Z,5.20
2022-12-29T01:26:55.669Z,5.20
2022-12-29T01:29:23.072Z,5.20
2022-12-29T01:31:50.909Z,5.20
2022-12-29T01:34:18.905Z,5.20
2022-12-29T01:36:46.083Z,5.20
2022-12-29T01:39:12.988Z,5.20
2022-12-29T01:41:41.450Z,5.20
2022-12-29T01:44:49.681Z,5.30
2022-12-29T01:47:57.692Z,5.30
2022-12-29T01:50:32.855Z,5.30
2022-12-29T01:53:04.414Z,5.30
2022-12-29T01:55:35.590Z,5.30
2022-12-29T01:58:05.652Z,5.30
2022-12-29T02:00:32.688Z,5.20
2022-12-29T02:02:59.807Z,5.20
2022-12-29T02:05:30.098Z,5.20
2022-12-29T02:07:57.257Z,5.20
2022-12-29T02:10:26.944Z,5.20
2022-12-29T02:12:54.756Z,5.20
2022-12-29T02:15:45.489Z,5.10
2022-12-29T02:18:33.974Z,5.10
2022-12-29T02:21:07.061Z,5.10
2022-12-29T02:23:36.599Z,5.10
2022-12-29T02:26:21.822Z,5.20
2022-12-29T02:29:27.961Z,5.20
2022-12-29T02:32:32.837Z,5.30
2022-12-29T02:35:13.957Z,5.30
2022-12-29T02:38:10.729Z,5.30
2022-12-29T02:41:03.680Z,5.30
2022-12-29T02:43:57.469Z,5.30
2022-12-29T02:46:49.334Z,5.40
2022-12-29T02:49:41.388Z,5.60
2022-12-29T02:52:16.951Z,5.60
2022-12-29T02:54:44.125Z,5.70
2022-12-29T02:57:36.182Z,5.70
2022-12-29T03:00:08.797Z,5.80
2022-12-29T03:02:41.968Z,6.00
2022-12-29T03:05:23.103Z,6.10
2022-12-29T03:08:25.294Z,6.10
2022-12-29T03:11:03.587Z,6.20
2022-12-29T03:14:11.598Z,6.20
2022-12-29T03:16:56.600Z,6.20
2022-12-29T03:19:29.224Z,6.30
2022-12-29T03:22:23.101Z,6.40
2022-12-29T03:24:53.526Z,6.50
2022-12-29T03:27:33.004Z,6.60
2022-12-29T03:30:03.988Z,6.60
2022-12-29T03:32:39.371Z,6.70
2022-12-29T03:35:08.512Z,6.70
2022-12-29T03:37:42.138Z,6.80
2022-12-29T03:40:09.680Z,6.80
2022-12-29T03:42:37.978Z,6.80
2022-12-29T03:45:06.881Z,6.70
2022-12-29T03:47:33.764Z,6.70
2022-12-29T03:50:01.416Z,6.80
2022-12-29T03:52:28.278Z,6.80
2022-12-29T03:54:55.099Z,6.80
2022-12-29T03:57:21.953Z,6.80
2022-12-29T03:59:48.815Z,6.90
2022-12-29T04:02:15.794Z,6.80
2022-12-29T04:04:42.686Z,6.90
2022-12-29T04:07:09.541Z,6.80
2022-12-29T04:09:36.379Z,6.80
2022-12-29T04:12:03.253Z,6.80
2022-12-29T04:14:30.060Z,6.80
2022-12-29T04:16:56.866Z,6.80
2022-12-29T04:19:23.691Z,6.90
2022-12-29T04:21:50.547Z,6.90
2022-12-29T04:24:17.459Z,6.90
2022-12-29T04:26:45.638Z,6.90
2022-12-29T04:29:12.474Z,6.90
2022-12-29T04:31:39.462Z,6.90
2022-12-29T04:34:06.366Z,6.90
2022-12-29T04:36:33.264Z,6.90
2022-12-29T04:39:00.089Z,6.90
2022-12-29T04:41:27.381Z,6.90
2022-12-29T04:43:54.197Z,6.90
2022-12-29T04:46:21.117Z,6.90
2022-12-29T04:48:47.986Z,6.90
2022-12-29T04:51:14.780Z,6.90
2022-12-29T04:53:41.635Z,6.90
2022-12-29T04:56:10.140Z,6.90
2022-12-29T04:58:37.590Z,6.90
2022-12-29T05:01:04.445Z,6.90
2022-12-29T05:03:31.352Z,7.00
2022-12-29T05:05:58.605Z,7.00
2022-12-29T05:08:28.393Z,7.00
2022-12-29T05:10:55.563Z,7.00
2022-12-29T05:13:22.509Z,7.00
2022-12-29T05:15:54.550Z,7.00
2022-12-29T05:18:21.699Z,7.00
2022-12-29T05:20:48.667Z,7.00
2022-12-29T05:23:16.539Z,7.00
2022-12-29T05:25:46.206Z,7.00
2022-12-29T05:28:13.929Z,7.00
2022-12-29T05:30:41.352Z,7.10
2022-12-29T05:33:08.359Z,7.10
2022-12-29T05:35:35.265Z,7.10
2022-12-29T05:38:02.101Z,7.10
2022-12-29T05:40:28.892Z,7.10
2022-12-29T05:42:55.748Z,7.10
2022-12-29T05:45:22.535Z,7.10
2022-12-29T05:47:49.351Z,7.20
2022-12-29T05:50:16.240Z,7.20
2022-12-29T05:52:45.084Z,7.20
2022-12-29T05:55:12.292Z,7.20
2022-12-29T05:57:39.311Z,7.20
2022-12-29T06:00:07.175Z,7.30
2022-12-29T06:02:34.216Z,7.30
2022-12-29T06:05:01.136Z,7.30
2022-12-29T06:07:28.458Z,7.30
2022-12-29T06:09:55.242Z,7.30
2022-12-29T06:12:22.080Z,7.30
2022-12-29T06:14:49.193Z,7.40
2022-12-29T06:17:16.041Z,7.40
2022-12-29T06:19:45.072Z,7.50
2022-12-29T06:22:13.283Z,7.50
2022-12-29T06:24:40.836Z,7.50
2022-12-29T06:27:07.925Z,7.40
2022-12-29T06:29:36.050Z,7.40
2022-12-29T06:32:02.907Z,7.40
2022-12-29T06:34:30.163Z,7.40
2022-12-29T06:36:56.970Z,7.40
2022-12-29T06:39:23.779Z,7.40
2022-12-29T06:41:54.615Z,7.40
2022-12-29T06:44:22.592Z,7.40
2022-12-29T06:46:49.505Z,7.30
2022-12-29T06:49:16.520Z,7.30
2022-12-29T06:51:44.077Z,7.30
2022-12-29T06:54:11.009Z,7.20
2022-12-29T06:56:37.887Z,7.20
2022-12-29T06:59:04.770Z,7.20
2022-12-29T07:01:31.796Z,7.20
2022-12-29T07:03:58.847Z,7.20
2022-12-29T07:06:25.770Z,7.10
2022-12-29T07:08:56.053Z,7.10
2022-12-29T07:11:23.006Z,7.20
2022-12-29T07:13:50.180Z,7.20
2022-12-29T07:16:17.152Z,7.20
2022-12-29T07:18:44.117Z,7.30
2022-12-29T07:21:11.019Z,7.30
2022-12-29T07:23:37.845Z,7.40
2022-12-29T07:26:10.924Z,7.50
2022-12-29T07:28:39.061Z,7.60
2022-12-29T07:31:07.136Z,7.60
2022-12-29T07:33:34.166Z,7.70
2022-12-29T07:36:01.262Z,7.70
2022-12-29T07:38:28.082Z,7.70
2022-12-29T07:40:59.282Z,7.80
2022-12-29T07:43:26.412Z,7.80
2022-12-29T07:45:53.255Z,7.80
2022-12-29T07:48:20.403Z,7.80
2022-12-29T07:50:47.309Z,7.90
2022-12-29T07:53:14.109Z,8.00
2022-12-29T07:55:41.317Z,8.10
2022-12-29T07:58:08.399Z,8.20
2022-12-29T08:00:35.387Z,8.80
2022-12-29T08:03:02.325Z,9.90
2022-12-29T08:05:29.172Z,10.70
2022-12-29T08:07:55.941Z,11.50
2022-12-29T08:10:22.766Z,12.10
2022-12-29T08:12:50.900Z,12.50
2022-12-29T08:15:17.731Z,12.70
2022-12-29T08:17:44.568Z,12.80
2022-12-29T08:20:11.714Z,12.80
2022-12-29T08:22:38.528Z,12.70
2022-12-29T08:25:05.848Z,12.50
2022-12-29T08:27:32.622Z,12.40
2022-12-29T08:30:01.495Z,12.30
2022-12-29T08:32:29.521Z,12.10
2022-12-29T08:34:56.426Z,11.90
2022-12-29T08:37:29.038Z,12.00
2022-12-29T08:39:58.870Z,12.00
2022-12-29T08:42:29.911Z,11.90
2022-12-29T08:44:56.838Z,12.10
2022-12-29T08:47:23.634Z,12.30
2022-12-29T08:49:50.653Z,12.30
2022-12-29T08:54:58.183Z,11.50
2022-12-29T08:57:24.980Z,11.00
2022-12-29T08:59:51.890Z,10.70
2022-12-29T09:02:24.170Z,10.50
2022-12-29T09:04:52.233Z,10.50
2022-12-29T09:07:19.104Z,10.70
2022-12-29T09:09:45.940Z,11.10
2022-12-29T09:12:12.726Z,11.70
2022-12-29T09:14:39.706Z,12.20
2022-12-29T09:17:25.048Z,12.20
2022-12-29T09:19:51.949Z,12.00
2022-12-29T09:22:18.776Z,12.20
2022-12-29T09:24:45.565Z,12.60
2022-12-29T09:27:12.375Z,12.70
2022-12-29T09:29:39.700Z,12.70
2022-12-29T09:32:07.878Z,12.80
2022-12-29T09:34:35.464Z,12.90
2022-12-29T09:37:02.294Z,12.90
2022-12-29T09:39:29.139Z,13.00
2022-12-29T09:42:33.134Z,13.40
2022-12-29T09:45:15.333Z,13.30
2022-12-29T09:47:45.433Z,12.60
2022-12-29T09:50:25.810Z,12.10
2022-12-29T09:53:16.566Z,11.70
2022-12-29T09:55:58.978Z,11.40
2022-12-29T09:58:43.844Z,11.20
2022-12-29T10:01:35.246Z,11.00
2022-12-29T10:04:04.179Z,11.00
2022-12-29T10:06:56.445Z,10.90
2022-12-29T10:09:35.964Z,10.80
2022-12-29T10:12:11.763Z,10.80
2022-12-29T10:14:57.601Z,10.80
2022-12-29T10:17:51.290Z,10.80
2022-12-29T10:20:18.059Z,10.90
2022-12-29T10:22:59.849Z,11.00
2022-12-29T10:25:32.953Z,11.00
2022-12-29T10:28:06.450Z,11.00
2022-12-29T10:30:35.742Z,11.00
2022-12-29T10:33:08.797Z,11.10
2022-12-29T10:35:40.074Z,11.30
2022-12-29T10:38:25.454Z,11.40
2022-12-29T10:41:14.866Z,11.60
2022-12-29T10:43:48.530Z,11.80
2022-12-29T10:46:25.944Z,11.90
2022-12-29T10:48:52.732Z,12.20
2022-12-29T10:51:42.571Z,12.30
2022-12-29T10:54:37.341Z,12.50
2022-12-29T10:57:23.369Z,12.40
2022-12-29T10:59:50.231Z,12.50
2022-12-29T11:02:26.200Z,12.60
2022-12-29T11:05:08.461Z,12.80
2022-12-29T11:07:35.296Z,13.10
2022-12-29T11:10:36.528Z,13.10
2022-12-29T11:13:14.387Z,13.10
2022-12-29T11:15:48.521Z,13.30
2022-12-29T11:18:22.919Z,13.60
2022-12-29T11:20:52.591Z,13.90
2022-12-29T11:23:55.616Z,14.50
2022-12-29T11:26:30.158Z,15.20
2022-12-29T11:29:22.772Z,16.10
2022-12-29T11:31:55.790Z,17.20
2022-12-29T11:34:26.310Z,17.30
2022-12-29T11:37:00.078Z,17.50
2022-12-29T11:39:29.617Z,18.00
2022-12-29T11:41:56.895Z,18.40
2022-12-29T11:44:24.051Z,18.60
2022-12-29T11:46:53.599Z,18.50
2022-12-29T11:49:23.742Z,18.70
2022-12-29T11:51:52.918Z,17.80
2022-12-29T11:54:37.826Z,17.70
2022-12-29T11:57:19.454Z,18.60
2022-12-29T11:59:56.244Z,19.50
2022-12-29T12:02:45.537Z,20.40
2022-12-29T12:05:18.595Z,20.60
2022-12-29T12:07:50.135Z,20.30
2022-12-29T12:10:26.266Z,20.00
2022-12-29T12:12:56.994Z,20.00
2022-12-29T12:15:31.056Z,19.70
2022-12-29T12:18:10.908Z,19.70
2022-12-29T12:20:46.129Z,19.50
2022-12-29T12:23:34.536Z,19.60
2022-12-29T12:26:35.780Z,18.70
2022-12-29T12:29:11.692Z,18.10
2022-12-29T12:31:39.096Z,18.30
2022-12-29T12:34:11.834Z,19.00
2022-12-29T12:37:03.236Z,19.40
2022-12-29T12:39:49.680Z,19.90
2022-12-29T12:42:36.831Z,20.10
2022-12-29T12:45:38.608Z,19.70
2022-12-29T12:48:23.249Z,19.80
2022-12-29T12:50:59.927Z,18.90
2022-12-29T12:53:35.824Z,17.80
2022-12-29T12:56:33.528Z,17.00
2022-12-29T12:59:27.880Z,16.60
2022-12-29T13:02:17.029Z,16.20
2022-12-29T13:04:54.807Z,15.90
2022-12-29T13:07:22.440Z,15.50
2022-12-29T13:09:55.073Z,15.20
2022-12-29T13:12:59.413Z,15.10
2022-12-29T13:15:57.609Z,14.80
2022-12-29T13:18:48.912Z,14.60
2022-12-29T13:22:01.837Z,14.50
2022-12-29T13:24:41.622Z,14.40
2022-12-29T13:27:23.864Z,14.20
2022-12-29T13:29:56.716Z,14.10
2022-12-29T13:32:52.256Z,14.10
2022-12-29T13:35:36.273Z,14.00
2022-12-29T13:38:13.700Z,13.90
2022-12-29T13:40:46.458Z,13.70
2022-12-29T13:43:15.585Z,13.60
2022-12-29T13:45:44.738Z,13.50
2022-12-29T13:48:27.548Z,13.40
2022-12-29T13:50:59.471Z,13.30
2022-12-29T13:53:31.938Z,13.30
2022-12-29T13:56:11.088Z,13.20
2022-12-29T13:59:07.556Z,13.20
2022-12-29T14:01:44.531Z,13.10
2022-12-29T14:04:15.992Z,13.00
2022-12-29T14:06:59.836Z,13.00
2022-12-29T14:09:35.499Z,12.90
2022-12-29T14:12:02.579Z,12.90
2022-12-29T14:14:31.586Z,12.80
2022-12-29T14:17:14.963Z,12.70
2022-12-29T14:19:44.800Z,12.70
2022-12-29T14:22:13.073Z,12.60
2022-12-29T14:24:46.614Z,12.60
2022-12-29T14:27:13.396Z,12.50
2022-12-29T14:29:40.185Z,12.50
2022-12-29T14:32:37.158Z,12.40
2022-12-29T14:35:40.466Z,12.40
2022-12-29T14:38:16.039Z,12.30
2022-12-29T14:40:42.935Z,12.20
2022-12-29T14:43:24.370Z,12.10
2022-12-29T14:45:57.888Z,12.10
2022-12-29T14:48:42.984Z,12.00
2022-12-29T14:51:32.456Z,12.00
2022-12-29T14:53:59.290Z,12.00
2022-12-29T14:56:29.439Z,11.90
2022-12-29T14:58:56.263Z,11.90
2022-12-29T15:01:44.270Z,11.90
2022-12-29T15:04:21.660Z,11.90
2022-12-29T15:06:50.978Z,11.80
2022-12-29T15:09:37.544Z,11.80
2022-12-29T15:12:20.499Z,11.70
2022-12-29T15:14:56.555Z,11.70
2022-12-29T15:17:30.783Z,11.60
2022-12-29T15:20:15.143Z,11.60
2022-12-29T15:23:03.278Z,11.60
2022-12-29T15:25:31.318Z,11.50
2022-12-29T15:28:04.535Z,11.40
2022-12-29T15:30:32.207Z,11.30
2022-12-29T15:32:59.064Z,11.30
2022-12-29T15:35:38.331Z,11.20
2022-12-29T15:38:34.580Z,11.10
2022-12-29T15:41:31.727Z,11.10
2022-12-29T15:44:09.475Z,10.90
2022-12-29T15:46:36.872Z,10.90
2022-12-29T15:49:07.833Z,10.80
2022-12-29T15:51:38.239Z,10.70
2022-12-29T15:54:06.103Z,10.70
2022-12-29T15:56:34.261Z,10.60
2022-12-29T15:59:02.246Z,10.60
2022-12-29T16:01:37.402Z,10.50
2022-12-29T16:04:09.972Z,10.50
2022-12-29T16:06:38.851Z,10.40
2022-12-29T16:09:16.318Z,10.40
2022-12-29T16:11:51.760Z,10.30
2022-12-29T16:14:48.633Z,10.30
2022-12-29T16:17:23.082Z,10.20
2022-12-29T16:19:58.974Z,10.20
2022-12-29T16:22:46.006Z,10.20
2022-12-29T16:25:19.034Z,10.20
2022-12-29T16:27:46.153Z,10.10
2022-12-29T16:30:34.312Z,10.10
2022-12-29T16:33:04.587Z,10.10
2022-12-29T16:35:46.153Z,10.10
2022-12-29T16:38:19.130Z,10.20
2022-12-29T16:41:03.106Z,10.20
2022-12-29T16:43:32.275Z,10.20
2022-12-29T16:46:01.792Z,10.10
2022-12-29T16:48:48.698Z,10.00
2022-12-29T16:51:19.654Z,10.00
2022-12-29T16:53:54.653Z,10.00
2022-12-29T16:56:25.216Z,10.00
2022-12-29T16:58:59.591Z,9.90
2022-12-29T17:01:26.652Z,9.90
2022-12-29T17:03:58.047Z,9.80
2022-12-29T17:06:25.353Z,9.80
2022-12-29T17:08:53.165Z,9.70
2022-12-29T17:11:45.526Z,9.70
2022-12-29T17:14:40.489Z,9.70
2022-12-29T17:17:15.352Z,9.70
2022-12-29T17:19:46.161Z,9.70
2022-12-29T17:22:17.617Z,9.70
2022-12-29T17:24:44.573Z,9.70
2022-12-29T17:27:24.046Z,9.70
2022-12-29T17:29:51.917Z,9.70
2022-12-29T17:32:18.927Z,9.60
2022-12-29T17:34:45.774Z,9.60
2022-12-29T17:37:24.441Z,9.60
2022-12-29T17:39:51.813Z,9.60
2022-12-29T17:42:20.195Z,9.50
2022-12-29T17:44:47.540Z,9.60
2022-12-29T17:47:15.895Z,9.60
2022-12-29T17:49:46.201Z,9.60
2022-12-29T17:52:14.790Z,9.60
2022-12-29T17:54:47.695Z,9.60
2022-12-29T17:57:19.613Z,9.70
2022-12-29T17:59:46.581Z,9.70
2022-12-29T18:02:23.921Z,9.80
2022-12-29T18:04:51.203Z,9.80
2022-12-29T18:07:18.000Z,9.80
2022-12-29T18:09:44.865Z,9.80
2022-12-29T18:12:40.797Z,9.70
2022-12-29T18:15:17.381Z,9.70
2022-12-29T18:17:44.276Z,9.70
2022-12-29T18:20:11.092Z,9.70
2022-12-29T18:22:37.927Z,9.60
2022-12-29T18:25:22.706Z,9.60
2022-12-29T18:27:49.527Z,9.60
2022-12-29T18:30:17.908Z,9.50
2022-12-29T18:32:44.806Z,9.50
2022-12-29T18:35:30.507Z,9.50
2022-12-29T18:37:57.394Z,9.50
2022-12-29T18:40:24.335Z,9.50
2022-12-29T18:42:51.293Z,9.50
2022-12-29T18:45:21.382Z,9.50
2022-12-29T18:47:48.316Z,9.60
2022-12-29T18:50:16.685Z,9.70
2022-12-29T18:52:44.016Z,9.80
2022-12-29T18:55:19.615Z,10.00
2022-12-29T18:57:46.877Z,10.10
2022-12-29T19:00:16.719Z,10.10
2022-12-29T19:02:44.486Z,10.20
2022-12-29T19:05:20.903Z,10.30
2022-12-29T19:07:47.789Z,10.20
2022-12-29T19:10:14.646Z,10.10
2022-12-29T19:12:41.457Z,10.00
2022-12-29T19:15:18.323Z,9.90
2022-12-29T19:17:45.097Z,9.70
2022-12-29T19:20:23.053Z,9.70
2022-12-29T19:22:49.840Z,9.60
2022-12-29T19:25:16.728Z,9.60
2022-12-29T19:27:43.495Z,9.50
2022-12-29T19:30:13.035Z,9.60
2022-12-29T19:32:41.129Z,9.60
2022-12-29T19:35:11.939Z,9.60
2022-12-29T19:37:40.460Z,9.70
2022-12-29T19:40:13.757Z,9.70
2022-12-29T19:42:40.931Z,9.60
2022-12-29T19:45:08.610Z,9.60
2022-12-29T19:47:35.941Z,9.60
2022-12-29T19:50:04.051Z,9.60
2022-12-29T19:52:32.127Z,9.60
2022-12-29T19:54:59.607Z,9.60
2022-12-29T19:57:26.993Z,9.50
2022-12-29T19:59:54.002Z,9.60
2022-12-29T20:02:31.767Z,9.60
2022-12-29T20:04:59.032Z,9.60
2022-12-29T20:07:26.291Z,9.50
2022-12-29T20:09:53.350Z,9.50
2022-12-29T20:12:24.417Z,9.50
2022-12-29T20:14:56.671Z,9.40
2022-12-29T20:17:53.931Z,9.30
2022-12-29T20:20:10.971Z,9.30
2022-12-29T20:22:37.795Z,9.30
2022-12-29T20:25:43.032Z,9.30
2022-12-29T20:27:51.611Z,9.30
2022-12-29T20:30:19.387Z,9.30
2022-12-29T20:32:46.206Z,9.30
2022-12-29T20:35:13.794Z,9.40
2022-12-29T20:37:40.582Z,9.40
2022-12-29T20:40:08.729Z,9.30
2022-12-29T20:42:35.815Z,9.20
2022-12-29T20:45:02.653Z,9.10
2022-12-29T20:47:29.477Z,9.10
2022-12-29T20:49:56.337Z,9.10
2022-12-29T20:52:23.224Z,9.10
2022-12-29T20:54:50.052Z,9.00
2022-12-29T20:57:16.871Z,9.00
2022-12-29T20:59:43.678Z,9.00
2022-12-29T21:02:22.438Z,8.90
2022-12-29T21:07:36.270Z,8.90
2022-12-29T21:10:03.201Z,8.90
2022-12-29T21:12:30.036Z,8.90
2022-12-29T21:14:56.877Z,8.90
2022-12-29T21:17:23.682Z,9.00
2022-12-29T21:19:50.512Z,9.00
2022-12-29T21:22:17.317Z,9.00
2022-12-29T21:24:44.117Z,9.00
2022-12-29T21:27:10.952Z,9.00
2022-12-29T21:29:37.795Z,9.00
2022-12-29T21:32:06.595Z,9.00
2022-12-29T21:34:34.751Z,9.00
2022-12-29T21:37:02.012Z,9.00
2022-12-29T21:39:28.884Z,9.00
2022-12-29T21:42:00.303Z,9.00
2022-12-29T21:44:46.510Z,9.10
2022-12-29T21:47:13.431Z,9.00
2022-12-29T21:49:40.201Z,9.10
2022-12-29T21:52:07.007Z,9.00
2022-12-29T21:54:52.173Z,8.90
2022-12-29T21:57:38.388Z,8.90
2022-12-29T22:00:28.035Z,8.80
2022-12-29T22:03:22.087Z,8.80
2022-12-29T22:06:09.470Z,8.80
2022-12-29T22:08:55.679Z,8.70
2022-12-29T22:11:41.272Z,8.70
2022-12-29T22:14:08.152Z,8.60
2022-12-29T22:16:35.048Z,8.60
2022-12-29T22:19:02.319Z,8.60
2022-12-29T22:21:29.150Z,8.60
2022-12-29T22:23:55.927Z,8.60
2022-12-29T22:26:22.831Z,8.60
2022-12-29T22:28:52.015Z,8.60
2022-12-29T22:31:30.244Z,8.60
2022-12-29T22:33:59.289Z,8.60
2022-12-29T22:36:27.112Z,8.60
2022-12-29T22:38:54.062Z,8.70
2022-12-29T22:41:21.105Z,8.70
2022-12-29T22:43:47.881Z,8.70
2022-12-29T22:46:14.849Z,8.70
2022-12-29T22:48:41.747Z,8.70
2022-12-29T22:51:08.540Z,8.60
2022-12-29T22:53:35.571Z,8.60
2022-12-29T22:56:10.981Z,8.60
2022-12-29T22:58:42.217Z,8.60
2022-12-29T23:01:10.327Z,8.60
2022-12-29T23:03:38.296Z,8.60
2022-12-29T23:06:06.935Z,8.60
2022-12-29T23:08:39.204Z,8.60
2022-12-29T23:11:08.716Z,8.60
2022-12-29T23:13:36.140Z,8.60
2022-12-29T23:16:03.388Z,8.60
2022-12-29T23:18:30.383Z,8.60
2022-12-29T23:20:57.246Z,8.60
2022-12-29T23:23:48.787Z,8.60
2022-12-29T23:26:17.871Z,8.60
2022-12-29T23:28:44.965Z,8.60
2022-12-29T23:31:12.038Z,8.60
2022-12-29T23:33:38.854Z,8.60
2022-12-29T23:36:06.074Z,8.60
2022-12-29T23:38:33.104Z,8.60
2022-12-29T23:41:00.181Z,8.60
2022-12-29T23:43:27.061Z,8.60
2022-12-29T23:45:53.859Z,8.50
2022-12-29T23:48:20.672Z,8.50
2022-12-29T23:50:47.510Z,8.50
2022-12-29T23:53:14.319Z,8.50
2022-12-29T23:55:42.628Z,8.50
2022-12-29T23:58:10.186Z,8.50
